createdAt,value
2023-04-03T00:01:08.724Z,69.60
2023-04-03T00:02:29.367Z,69.70
2023-04-03T00:03:49.605Z,69.60
2023-04-03T00:05:10.549Z,70.00
2023-04-03T00:06:31.053Z,69.70
2023-04-03T00:07:51.729Z,69.40
2023-04-03T00:09:14.006Z,69.80
2023-04-03T00:10:35.077Z,69.40
2023-04-03T00:11:55.911Z,70.00
2023-04-03T00:13:17.698Z,69.40
2023-04-03T00:14:38.525Z,69.90
2023-04-03T00:15:59.331Z,69.60
2023-04-03T00:17:19.996Z,70.10
2023-04-03T00:18:40.956Z,69.90
2023-04-03T00:20:01.787Z,69.80
2023-04-03T00:21:22.453Z,69.90
2023-04-03T00:22:42.939Z,70.20
2023-04-03T00:24:03.792Z,69.90
2023-04-03T00:25:25.571Z,70.00
2023-04-03T00:26:46.311Z,70.40
2023-04-03T00:28:07.429Z,69.70
2023-04-03T00:29:27.919Z,70.10
2023-04-03T00:30:49.971Z,70.40
2023-04-03T00:32:10.390Z,69.80
2023-04-03T00:33:30.982Z,69.80
2023-04-03T00:34:51.625Z,70.00
2023-04-03T00:36:13.778Z,70.00
2023-04-03T00:37:34.742Z,69.90
2023-04-03T00:38:55.373Z,70.20
2023-04-03T00:40:16.563Z,69.70
2023-04-03T00:41:38.238Z,69.80
2023-04-03T00:43:00.186Z,69.90
2023-04-03T00:44:22.723Z,69.70
2023-04-03T00:45:45.346Z,69.70
2023-04-03T00:47:09.559Z,70.00
2023-04-03T00:48:32.984Z,70.00
2023-04-03T00:49:54.771Z,69.60
2023-04-03T00:51:17.915Z,69.90
2023-04-03T00:52:39.154Z,69.80
2023-04-03T00:54:01.342Z,69.80
2023-04-03T00:55:22.084Z,69.90
2023-04-03T00:56:44.589Z,69.60
2023-04-03T00:58:05.933Z,69.50
2023-04-03T00:59:29.918Z,69.50
2023-04-03T01:00:55.162Z,69.90
2023-04-03T01:02:15.969Z,70.10
2023-04-03T01:03:36.926Z,70.10
2023-04-03T01:04:57.530Z,70.00
2023-04-03T01:06:21.331Z,69.90
2023-04-03T01:07:42.211Z,70.00
2023-04-03T01:09:04.254Z,69.90
2023-04-03T01:10:25.005Z,69.80
2023-04-03T01:11:46.819Z,70.00
2023-04-03T01:13:20.606Z,69.80
2023-04-03T01:15:50.613Z,69.90
2023-04-03T01:17:30.644Z,70.00
2023-04-03T01:18:51.058Z,69.80
2023-04-03T01:20:53.344Z,70.00
2023-04-03T01:22:19.118Z,69.80
2023-04-03T01:23:40.702Z,69.60
2023-04-03T01:25:01.618Z,69.40
2023-04-03T01:26:22.546Z,69.80
2023-04-03T01:27:44.514Z,69.70
2023-04-03T01:29:05.437Z,69.80
2023-04-03T01:30:31.445Z,70.10
2023-04-03T01:31:54.692Z,70.00
2023-04-03T01:33:15.552Z,69.70
2023-04-03T01:34:36.162Z,69.60
2023-04-03T01:35:56.975Z,69.50
2023-04-03T01:37:17.307Z,69.80
2023-04-03T01:38:37.598Z,69.70
2023-04-03T01:39:58.251Z,69.80
2023-04-03T01:41:19.034Z,69.80
2023-04-03T01:42:39.608Z,70.50
2023-04-03T01:44:00.140Z,70.10
2023-04-03T01:45:20.853Z,69.80
2023-04-03T01:46:41.569Z,69.80
2023-04-03T01:48:04.427Z,70.10
2023-04-03T01:49:24.928Z,70.20
2023-04-03T01:50:45.778Z,70.10
2023-04-03T01:52:06.477Z,69.90
2023-04-03T01:53:27.469Z,70.20
2023-04-03T01:54:48.135Z,70.30
2023-04-03T01:56:09.281Z,70.20
2023-04-03T01:57:29.661Z,70.30
2023-04-03T01:58:50.150Z,70.60
2023-04-03T02:00:11.661Z,70.30
2023-04-03T02:01:32.316Z,69.90
2023-04-03T02:02:52.903Z,70.30
2023-04-03T02:04:15.049Z,70.40
2023-04-03T02:05:36.128Z,70.60
2023-04-03T02:06:56.426Z,71.00
2023-04-03T02:08:17.159Z,70.80
2023-04-03T02:09:37.830Z,71.50
2023-04-03T02:10:58.734Z,71.40
2023-04-03T02:12:19.282Z,71.40
2023-04-03T02:13:41.549Z,70.80
2023-04-03T02:15:02.044Z,70.80
2023-04-03T02:16:22.866Z,71.30
2023-04-03T02:17:43.600Z,71.40
2023-04-03T02:19:04.528Z,71.10
2023-04-03T02:20:26.882Z,70.90
2023-04-03T02:21:47.431Z,71.20
2023-04-03T02:23:08.251Z,71.40
2023-04-03T02:25:39.162Z,71.60
2023-04-03T02:26:59.623Z,71.60
2023-04-03T02:28:20.245Z,71.90
2023-04-03T02:29:40.989Z,72.40
2023-04-03T02:31:01.609Z,71.80
2023-04-03T02:32:22.282Z,71.60
2023-04-03T02:33:43.171Z,71.10
2023-04-03T02:35:04.480Z,71.70
2023-04-03T02:36:26.762Z,72.20
2023-04-03T02:37:47.434Z,71.80
2023-04-03T02:39:08.135Z,72.20
2023-04-03T02:40:28.817Z,72.40
2023-04-03T02:41:49.620Z,72.90
2023-04-03T02:43:10.332Z,72.90
2023-04-03T02:44:30.712Z,72.70
2023-04-03T02:45:51.255Z,72.80
2023-04-03T02:47:11.927Z,72.80
2023-04-03T02:48:32.890Z,72.60
2023-04-03T02:49:53.577Z,72.50
2023-04-03T02:51:14.446Z,72.40
2023-04-03T02:52:36.335Z,72.80
2023-04-03T02:53:56.725Z,73.20
2023-04-03T02:55:16.491Z,73.00
2023-04-03T02:56:37.425Z,73.30
2023-04-03T02:57:57.953Z,73.90
2023-04-03T02:59:18.872Z,73.90
2023-04-03T03:00:39.693Z,73.70
2023-04-03T03:02:00.638Z,73.40
2023-04-03T03:03:21.395Z,74.30
2023-04-03T03:04:42.812Z,74.40
2023-04-03T03:06:04.525Z,74.60
2023-04-03T03:07:25.241Z,74.80
2023-04-03T03:08:47.240Z,74.70
2023-04-03T03:10:08.531Z,74.50
2023-04-03T03:11:29.112Z,74.40
2023-04-03T03:12:50.166Z,74.20
2023-04-03T03:14:10.946Z,74.40
2023-04-03T03:15:31.794Z,74.70
2023-04-03T03:16:52.599Z,74.50
2023-04-03T03:18:13.222Z,74.40
2023-04-03T03:19:33.722Z,74.60
2023-04-03T03:20:55.248Z,75.10
2023-04-03T03:22:15.523Z,74.70
2023-04-03T03:23:36.197Z,75.00
2023-04-03T03:24:58.587Z,75.50
2023-04-03T03:26:19.295Z,75.60
2023-04-03T03:27:39.943Z,75.40
2023-04-03T03:29:00.698Z,75.00
2023-04-03T03:30:21.151Z,74.80
2023-04-03T03:31:42.173Z,74.80
2023-04-03T03:33:02.959Z,75.60
2023-04-03T03:34:23.709Z,75.90
2023-04-03T03:35:44.631Z,75.90
2023-04-03T03:37:05.238Z,75.30
2023-04-03T03:38:26.300Z,75.90
2023-04-03T03:39:46.783Z,75.90
2023-04-03T03:41:09.047Z,75.40
2023-04-03T03:42:29.403Z,75.40
2023-04-03T03:43:50.220Z,75.50
2023-04-03T03:45:22.593Z,75.80
2023-04-03T03:46:43.001Z,75.80
2023-04-03T03:48:03.876Z,75.60
2023-04-03T03:49:24.477Z,75.80
2023-04-03T03:50:45.301Z,75.90
2023-04-03T03:52:06.015Z,75.60
2023-04-03T03:53:26.694Z,75.90
2023-04-03T03:55:59.691Z,75.90
2023-04-03T03:57:21.491Z,75.90
2023-04-03T03:58:42.175Z,76.10
2023-04-03T04:00:02.884Z,76.40
2023-04-03T04:01:23.479Z,76.10
2023-04-03T04:02:44.270Z,75.90
2023-04-03T04:04:04.955Z,75.90
2023-04-03T04:05:21.363Z,76.20
2023-04-03T04:06:42.138Z,76.10
2023-04-03T04:08:02.687Z,76.70
2023-04-03T04:09:23.296Z,76.80
2023-04-03T04:10:44.068Z,77.30
2023-04-03T04:12:05.159Z,77.10
2023-04-03T04:13:27.088Z,77.30
2023-04-03T04:14:43.362Z,77.50
2023-04-03T04:16:04.625Z,77.50
2023-04-03T04:17:25.384Z,77.50
2023-04-03T04:18:46.134Z,77.60
2023-04-03T04:20:07.622Z,78.00
2023-04-03T04:21:28.344Z,78.20
2023-04-03T04:22:49.068Z,77.50
2023-04-03T04:24:09.986Z,77.30
2023-04-03T04:25:30.440Z,77.30
2023-04-03T04:26:50.949Z,77.70
2023-04-03T04:28:11.679Z,77.30
2023-04-03T04:29:33.884Z,77.50
2023-04-03T04:30:54.370Z,77.20
2023-04-03T04:32:15.231Z,77.00
2023-04-03T04:33:41.514Z,77.10
2023-04-03T04:35:02.273Z,77.00
2023-04-03T04:36:23.052Z,76.50
2023-04-03T04:37:43.610Z,76.90
2023-04-03T04:39:04.411Z,77.10
2023-04-03T04:40:25.408Z,76.90
2023-04-03T04:41:45.765Z,76.80
2023-04-03T04:43:06.531Z,77.10
2023-04-03T04:44:27.483Z,76.90
2023-04-03T04:45:49.741Z,76.70
2023-04-03T04:47:10.456Z,76.20
2023-04-03T04:48:32.731Z,77.00
2023-04-03T04:49:53.290Z,77.70
2023-04-03T04:51:13.853Z,77.90
2023-04-03T04:52:34.523Z,78.10
2023-04-03T04:53:56.165Z,78.00
2023-04-03T04:56:14.743Z,78.00
2023-04-03T04:57:35.717Z,77.90
2023-04-03T04:58:56.414Z,77.70
2023-04-03T05:00:17.686Z,77.80
2023-04-03T05:01:40.268Z,77.80
2023-04-03T05:03:02.665Z,78.20
2023-04-03T05:04:23.416Z,78.20
2023-04-03T05:05:44.159Z,78.40
2023-04-03T05:07:07.869Z,78.60
2023-04-03T05:08:28.512Z,78.70
2023-04-03T05:09:49.323Z,78.70
2023-04-03T05:11:10.287Z,79.00
2023-04-03T05:16:59.647Z,78.70
2023-04-03T05:18:24.500Z,78.50
2023-04-03T05:19:45.880Z,78.10
2023-04-03T05:21:09.611Z,78.20
2023-04-03T05:22:34.584Z,78.00
2023-04-03T05:23:57.934Z,78.40
2023-04-03T05:25:21.932Z,78.50
2023-04-03T05:26:43.000Z,78.20
2023-04-03T05:28:05.116Z,78.50
2023-04-03T05:29:25.785Z,78.70
2023-04-03T05:30:46.215Z,78.60
2023-04-03T05:32:06.760Z,78.80
2023-04-03T05:33:30.875Z,78.80
2023-04-03T05:34:51.873Z,78.80
2023-04-03T05:36:12.803Z,79.20
2023-04-03T05:37:33.480Z,78.90
2023-04-03T05:38:54.457Z,79.00
2023-04-03T05:40:16.319Z,79.00
2023-04-03T05:41:38.193Z,78.80
2023-04-03T05:42:59.065Z,78.60
2023-04-03T05:44:19.831Z,78.80
2023-04-03T05:45:40.564Z,78.70
2023-04-03T05:47:01.268Z,78.50
2023-04-03T05:48:21.812Z,78.70
2023-04-03T05:49:44.232Z,78.80
2023-04-03T05:51:05.504Z,78.90
2023-04-03T05:52:28.559Z,78.60
2023-04-03T05:53:49.538Z,78.70
2023-04-03T05:55:10.164Z,78.80
2023-04-03T05:56:30.831Z,78.70
2023-04-03T05:57:51.743Z,78.80
2023-04-03T05:59:12.374Z,78.90
2023-04-03T06:00:33.069Z,78.90
2023-04-03T06:01:53.754Z,78.60
2023-04-03T06:03:14.717Z,78.70
2023-04-03T06:04:35.364Z,78.90
2023-04-03T06:05:57.408Z,78.90
2023-04-03T06:07:19.072Z,78.80
2023-04-03T06:08:39.508Z,78.90
2023-04-03T06:10:04.973Z,78.60
2023-04-03T06:11:26.523Z,78.40
2023-04-03T06:12:47.273Z,78.20
2023-04-03T06:14:08.446Z,78.50
2023-04-03T06:15:29.290Z,78.60
2023-04-03T06:16:49.958Z,78.70
2023-04-03T06:18:10.860Z,78.50
2023-04-03T06:19:31.880Z,78.20
2023-04-03T06:20:52.611Z,78.30
2023-04-03T06:22:14.915Z,78.20
2023-04-03T06:23:35.729Z,78.20
2023-04-03T06:24:56.569Z,78.50
2023-04-03T06:26:17.049Z,78.30
2023-04-03T06:27:37.902Z,78.00
2023-04-03T06:28:58.453Z,78.20
2023-04-03T06:30:19.283Z,78.10
2023-04-03T06:31:39.845Z,78.10
2023-04-03T06:33:00.574Z,78.10
2023-04-03T06:34:21.318Z,77.80
2023-04-03T06:35:42.032Z,78.30
2023-04-03T06:37:02.845Z,78.40
2023-04-03T06:38:25.114Z,78.10
2023-04-03T06:39:45.732Z,77.80
2023-04-03T06:41:06.327Z,77.70
2023-04-03T06:42:27.429Z,77.60
2023-04-03T06:43:48.191Z,77.00
2023-04-03T06:45:09.573Z,76.50
2023-04-03T06:46:32.226Z,76.60
2023-04-03T06:47:53.226Z,76.50
2023-04-03T06:49:15.443Z,76.60
2023-04-03T06:50:35.762Z,76.50
2023-04-03T06:51:56.599Z,76.30
2023-04-03T06:53:17.469Z,76.20
2023-04-03T06:54:39.589Z,76.20
2023-04-03T06:56:00.335Z,76.10
2023-04-03T06:57:21.053Z,75.90
2023-04-03T06:58:41.972Z,75.60
2023-04-03T07:00:03.413Z,75.80
2023-04-03T07:01:26.004Z,75.50
2023-04-03T07:02:46.588Z,74.60
2023-04-03T07:04:07.453Z,74.70
2023-04-03T07:05:28.141Z,74.90
2023-04-03T07:06:49.025Z,75.20
2023-04-03T07:08:09.676Z,75.10
2023-04-03T07:09:30.386Z,75.20
2023-04-03T07:10:52.630Z,74.60
2023-04-03T07:12:13.412Z,74.40
2023-04-03T07:13:34.478Z,74.50
2023-04-03T07:14:55.313Z,74.70
2023-04-03T07:16:15.799Z,74.70
2023-04-03T07:17:36.653Z,74.50
2023-04-03T07:18:57.375Z,74.50
2023-04-03T07:20:18.262Z,74.60
2023-04-03T07:21:38.857Z,74.30
2023-04-03T07:23:01.175Z,74.10
2023-04-03T07:24:22.734Z,73.90
2023-04-03T07:25:44.228Z,74.10
2023-04-03T07:27:06.639Z,73.10
2023-04-03T07:28:27.461Z,72.90
2023-04-03T07:29:48.026Z,73.30
2023-04-03T07:31:12.396Z,73.00
2023-04-03T07:32:33.297Z,72.90
2023-04-03T07:33:54.216Z,72.80
2023-04-03T07:35:14.605Z,72.60
2023-04-03T07:36:35.005Z,72.20
2023-04-03T07:37:55.788Z,72.30
2023-04-03T07:39:16.633Z,72.50
2023-04-03T07:40:37.591Z,72.40
2023-04-03T07:41:58.051Z,72.70
2023-04-03T07:43:21.320Z,72.80
2023-04-03T07:44:41.736Z,72.90
2023-04-03T07:46:02.561Z,72.90
2023-04-03T07:47:23.478Z,72.20
2023-04-03T07:48:44.556Z,72.20
2023-04-03T07:50:05.683Z,71.70
2023-04-03T07:51:26.399Z,71.70
2023-04-03T07:52:47.471Z,72.00
2023-04-03T07:54:08.223Z,71.90
2023-04-03T07:55:29.233Z,71.90
2023-04-03T07:56:50.229Z,71.20
2023-04-03T07:58:11.549Z,71.50
2023-04-03T07:59:33.788Z,71.80
2023-04-03T08:00:54.461Z,71.80
2023-04-03T08:02:15.025Z,71.50
2023-04-03T08:03:35.775Z,71.50
2023-04-03T08:04:57.045Z,70.90
2023-04-03T08:06:21.641Z,70.40
2023-04-03T08:07:46.918Z,70.40
2023-04-03T08:09:07.334Z,69.90
2023-04-03T08:10:27.984Z,70.40
2023-04-03T08:11:48.830Z,70.60
2023-04-03T08:13:10.232Z,70.60
2023-04-03T08:14:33.450Z,70.50
2023-04-03T08:15:54.171Z,68.80
2023-04-03T08:17:15.081Z,68.00
2023-04-03T08:18:35.740Z,67.80
2023-04-03T08:19:56.559Z,68.10
2023-04-03T08:21:17.242Z,68.40
2023-04-03T08:22:38.216Z,68.80
2023-04-03T08:23:59.020Z,69.00
2023-04-03T08:25:19.633Z,69.00
2023-04-03T08:26:40.311Z,68.70
2023-04-03T08:28:01.679Z,68.40
2023-04-03T08:29:22.094Z,68.60
2023-04-03T08:30:44.368Z,68.50
2023-04-03T08:32:05.291Z,68.30
2023-04-03T08:33:26.003Z,68.50
2023-04-03T08:34:46.824Z,68.90
2023-04-03T08:36:09.459Z,67.60
2023-04-03T08:37:30.328Z,67.20
2023-04-03T08:38:52.097Z,66.20
2023-04-03T08:40:16.066Z,65.40
2023-04-03T08:41:38.072Z,65.40
2023-04-03T08:43:09.175Z,66.40
2023-04-03T08:44:39.694Z,65.70
2023-04-03T08:46:04.443Z,66.50
2023-04-03T08:47:38.496Z,66.80
2023-04-03T08:48:59.597Z,65.40
2023-04-03T08:50:21.983Z,66.00
2023-04-03T08:51:47.130Z,65.90
2023-04-03T08:53:13.268Z,65.60
2023-04-03T08:54:35.532Z,65.30
2023-04-03T08:55:56.696Z,65.00
2023-04-03T08:57:17.508Z,63.30
2023-04-03T08:58:42.739Z,62.90
2023-04-03T09:00:08.136Z,62.30
2023-04-03T09:01:35.520Z,62.10
2023-04-03T09:02:57.151Z,63.10
2023-04-03T09:04:18.737Z,64.10
2023-04-03T09:05:43.246Z,61.50
2023-04-03T09:07:07.060Z,61.80
2023-04-03T09:08:28.917Z,61.50
2023-04-03T09:09:49.673Z,61.90
2023-04-03T09:11:15.812Z,62.10
2023-04-03T09:12:39.454Z,61.90
2023-04-03T09:14:03.645Z,60.20
2023-04-03T09:15:37.649Z,59.00
2023-04-03T09:17:03.197Z,57.90
2023-04-03T09:18:28.406Z,57.70
2023-04-03T09:19:55.152Z,54.90
2023-04-03T09:21:19.723Z,55.00
2023-04-03T09:22:49.785Z,53.10
2023-04-03T09:24:14.444Z,52.60
2023-04-03T09:25:38.221Z,53.40
2023-04-03T09:27:02.749Z,54.80
2023-04-03T09:28:23.331Z,54.20
2023-04-03T09:29:45.413Z,53.00
2023-04-03T09:31:18.772Z,54.30
2023-04-03T09:32:41.122Z,54.00
2023-04-03T09:34:04.643Z,52.70
2023-04-03T09:35:32.864Z,51.90
2023-04-03T09:37:05.913Z,50.90
2023-04-03T09:38:26.813Z,52.60
2023-04-03T09:39:51.733Z,52.20
2023-04-03T09:41:17.328Z,51.40
2023-04-03T09:42:44.107Z,49.20
2023-04-03T09:44:21.579Z,48.60
2023-04-03T09:45:42.263Z,49.30
2023-04-03T09:47:19.917Z,50.00
2023-04-03T09:48:55.023Z,49.00
2023-04-03T09:50:23.058Z,50.80
2023-04-03T09:51:43.533Z,50.80
2023-04-03T09:53:08.645Z,50.40
2023-04-03T09:54:37.505Z,50.00
2023-04-03T09:55:58.894Z,52.50
2023-04-03T09:57:19.798Z,51.40
2023-04-03T09:58:49.633Z,51.30
2023-04-03T10:00:22.562Z,52.00
2023-04-03T10:01:58.449Z,48.80
2023-04-03T10:03:25.971Z,48.40
2023-04-03T10:04:50.747Z,46.60
2023-04-03T10:06:23.540Z,47.20
2023-04-03T10:07:48.687Z,47.60
2023-04-03T10:09:19.747Z,47.40
2023-04-03T10:10:40.912Z,47.50
2023-04-03T10:12:03.885Z,48.30
2023-04-03T10:13:24.637Z,47.10
2023-04-03T10:14:56.008Z,48.50
2023-04-03T10:16:19.020Z,48.90
2023-04-03T10:17:51.251Z,47.70
2023-04-03T10:19:35.225Z,47.10
2023-04-03T10:21:00.929Z,48.40
2023-04-03T10:22:26.145Z,48.40
2023-04-03T10:23:49.826Z,47.90
2023-04-03T10:25:18.005Z,49.30
2023-04-03T10:26:46.446Z,49.50
2023-04-03T10:28:11.342Z,49.90
2023-04-03T10:29:41.985Z,49.60
2023-04-03T10:31:07.117Z,48.80
2023-04-03T10:32:43.717Z,49.10
2023-04-03T10:34:07.055Z,47.90
2023-04-03T10:35:43.429Z,47.00
2023-04-03T10:37:12.755Z,46.70
2023-04-03T10:38:40.889Z,46.80
2023-04-03T10:40:03.928Z,46.50
2023-04-03T10:41:29.763Z,47.30
2023-04-03T10:42:54.116Z,46.90
2023-04-03T10:44:20.602Z,46.60
2023-04-03T10:45:54.913Z,46.30
2023-04-03T10:47:17.812Z,44.90
2023-04-03T10:48:48.076Z,43.70
2023-04-03T10:50:24.302Z,41.80
2023-04-03T10:51:47.111Z,43.20
2023-04-03T10:53:16.786Z,44.40
2023-04-03T10:54:39.990Z,42.30
2023-04-03T10:56:06.094Z,43.30
2023-04-03T10:57:26.830Z,43.50
2023-04-03T10:58:50.962Z,44.00
2023-04-03T11:00:19.151Z,43.30
2023-04-03T11:01:42.679Z,43.60
2023-04-03T11:03:06.884Z,43.90
2023-04-03T11:04:30.993Z,43.50
2023-04-03T11:05:54.390Z,42.80
2023-04-03T11:07:19.323Z,42.60
2023-04-03T11:08:44.658Z,42.30
2023-04-03T11:10:11.279Z,42.10
2023-04-03T11:11:34.762Z,42.10
2023-04-03T11:12:59.481Z,42.90
2023-04-03T11:14:26.562Z,43.40
2023-04-03T11:15:47.211Z,44.10
2023-04-03T11:17:15.524Z,42.20
2023-04-03T11:18:40.961Z,43.80
2023-04-03T11:20:07.145Z,44.10
2023-04-03T11:21:30.359Z,45.00
2023-04-03T11:22:53.580Z,43.90
2023-04-03T11:24:21.786Z,44.10
2023-04-03T11:25:45.703Z,44.60
2023-04-03T11:27:06.887Z,43.80
2023-04-03T11:28:27.317Z,42.50
2023-04-03T11:29:48.486Z,43.00
2023-04-03T11:31:24.100Z,41.10
2023-04-03T11:33:10.810Z,41.60
2023-04-03T11:34:35.313Z,41.10
2023-04-03T11:35:59.458Z,39.50
2023-04-03T11:37:28.701Z,39.10
2023-04-03T11:38:51.114Z,39.40
2023-04-03T11:40:22.612Z,39.80
2023-04-03T11:41:43.403Z,38.90
2023-04-03T11:43:07.935Z,38.70
2023-04-03T11:44:35.609Z,40.70
2023-04-03T11:45:59.158Z,38.30
2023-04-03T11:47:47.991Z,37.20
2023-04-03T11:49:48.897Z,38.20
2023-04-03T11:51:51.489Z,38.90
2023-04-03T11:53:32.959Z,38.00
2023-04-03T11:54:54.251Z,38.00
2023-04-03T11:56:32.518Z,36.90
2023-04-03T11:58:12.333Z,35.90
2023-04-03T11:59:38.247Z,36.90
2023-04-03T12:01:07.268Z,37.00
2023-04-03T12:02:51.180Z,35.80
2023-04-03T12:04:16.572Z,38.50
2023-04-03T12:05:37.808Z,37.70
2023-04-03T12:07:09.484Z,34.70
2023-04-03T12:08:30.725Z,36.40
2023-04-03T12:09:58.743Z,35.40
2023-04-03T12:11:26.349Z,36.20
2023-04-03T12:13:02.218Z,37.10
2023-04-03T12:14:24.115Z,35.50
2023-04-03T12:15:54.255Z,35.70
2023-04-03T12:17:22.263Z,36.70
2023-04-03T12:18:44.180Z,35.50
2023-04-03T12:20:51.472Z,35.10
2023-04-03T12:22:14.944Z,34.30
2023-04-03T12:23:37.432Z,34.70
2023-04-03T12:24:57.909Z,34.80
2023-04-03T12:26:23.935Z,35.90
2023-04-03T12:27:45.073Z,35.30
2023-04-03T12:29:15.948Z,37.50
2023-04-03T12:30:36.618Z,35.10
2023-04-03T12:32:07.650Z,34.60
2023-04-03T12:33:38.030Z,35.50
2023-04-03T12:35:07.369Z,36.10
2023-04-03T12:36:35.003Z,36.40
2023-04-03T12:38:29.181Z,35.30
2023-04-03T12:39:55.590Z,34.60
2023-04-03T12:41:22.946Z,35.60
2023-04-03T12:42:57.752Z,36.30
2023-04-03T12:44:43.912Z,36.50
2023-04-03T12:46:08.707Z,35.90
2023-04-03T12:47:32.633Z,38.20
2023-04-03T12:48:54.424Z,36.90
2023-04-03T12:50:20.768Z,38.00
2023-04-03T12:51:43.916Z,35.70
2023-04-03T12:53:07.419Z,36.10
2023-04-03T12:54:33.115Z,35.80
2023-04-03T12:55:55.285Z,37.80
2023-04-03T12:57:20.048Z,35.50
2023-04-03T12:58:40.909Z,37.20
2023-04-03T13:00:20.836Z,36.60
2023-04-03T13:01:41.694Z,35.60
2023-04-03T13:03:03.634Z,36.00
2023-04-03T13:04:24.689Z,37.40
2023-04-03T13:05:45.815Z,36.80
2023-04-03T13:07:06.333Z,36.00
2023-04-03T13:08:26.655Z,37.30
2023-04-03T13:09:56.523Z,35.80
2023-04-03T13:11:17.152Z,37.20
2023-04-03T13:12:47.623Z,38.20
2023-04-03T13:14:17.648Z,36.60
2023-04-03T13:15:44.967Z,36.40
2023-04-03T13:17:11.560Z,36.90
2023-04-03T13:18:34.911Z,37.40
2023-04-03T13:19:55.866Z,38.60
2023-04-03T13:21:19.026Z,38.40
2023-04-03T13:22:41.608Z,39.00
2023-04-03T13:24:14.743Z,37.70
2023-04-03T13:25:38.866Z,37.30
2023-04-03T13:26:59.556Z,37.00
2023-04-03T13:28:21.835Z,39.40
2023-04-03T13:29:42.483Z,38.40
2023-04-03T13:31:08.779Z,38.30
2023-04-03T13:32:31.295Z,37.80
2023-04-03T13:33:56.457Z,37.40
2023-04-03T13:35:32.768Z,38.00
2023-04-03T13:36:58.091Z,37.70
2023-04-03T13:38:25.220Z,37.40
2023-04-03T13:39:46.965Z,37.00
2023-04-03T13:41:27.804Z,37.60
2023-04-03T13:43:00.317Z,37.70
2023-04-03T13:44:30.956Z,38.00
2023-04-03T13:46:14.527Z,37.80
2023-04-03T13:47:41.676Z,38.30
2023-04-03T13:49:19.684Z,37.40
2023-04-03T13:50:56.639Z,37.20
2023-04-03T13:52:24.438Z,38.00
2023-04-03T13:53:46.512Z,38.40
2023-04-03T13:55:24.791Z,37.10
2023-04-03T13:56:47.157Z,37.00
2023-04-03T13:58:23.472Z,36.90
2023-04-03T13:59:44.550Z,36.20
2023-04-03T14:01:15.630Z,37.80
2023-04-03T14:02:36.138Z,37.80
2023-04-03T14:03:59.227Z,37.70
2023-04-03T14:05:19.850Z,37.40
2023-04-03T14:06:40.739Z,36.60
2023-04-03T14:08:01.942Z,37.80
2023-04-03T14:09:24.046Z,39.50
2023-04-03T14:10:44.888Z,38.60
2023-04-03T14:12:09.845Z,37.90
2023-04-03T14:13:34.202Z,36.90
2023-04-03T14:14:54.728Z,37.30
2023-04-03T14:16:16.767Z,37.00
2023-04-03T14:17:37.456Z,36.30
2023-04-03T14:18:59.622Z,36.30
2023-04-03T14:20:23.306Z,37.90
2023-04-03T14:21:44.133Z,36.80
2023-04-03T14:23:04.921Z,38.20
2023-04-03T14:24:25.787Z,38.00
2023-04-03T14:25:46.409Z,37.90
2023-04-03T14:27:14.551Z,38.90
2023-04-03T14:28:35.406Z,38.60
2023-04-03T14:29:58.019Z,38.20
2023-04-03T14:31:19.764Z,38.30
2023-04-03T14:32:40.451Z,36.90
2023-04-03T14:34:02.780Z,37.40
2023-04-03T14:35:24.332Z,37.60
2023-04-03T14:36:45.649Z,37.60
2023-04-03T14:38:06.985Z,37.20
2023-04-03T14:39:27.818Z,37.90
2023-04-03T14:40:48.780Z,37.80
2023-04-03T14:42:14.001Z,37.80
2023-04-03T14:43:35.087Z,38.10
2023-04-03T14:44:56.120Z,39.00
2023-04-03T14:46:19.694Z,38.50
2023-04-03T14:47:43.865Z,39.00
2023-04-03T14:49:13.168Z,38.30
2023-04-03T14:50:33.691Z,38.40
2023-04-03T14:51:54.519Z,38.00
2023-04-03T14:53:16.947Z,37.90
2023-04-03T14:54:37.764Z,38.60
2023-04-03T14:55:58.326Z,37.90
2023-04-03T14:57:19.785Z,38.00
2023-04-03T14:58:40.547Z,37.50
2023-04-03T15:00:01.252Z,38.40
2023-04-03T15:01:21.855Z,38.40
2023-04-03T15:02:42.709Z,37.50
2023-04-03T15:04:12.257Z,38.30
2023-04-03T15:05:32.685Z,37.00
2023-04-03T15:06:53.757Z,36.90
2023-04-03T15:08:20.480Z,36.80
2023-04-03T15:09:41.252Z,36.20
2023-04-03T15:11:01.913Z,36.90
2023-04-03T15:12:22.618Z,37.00
2023-04-03T15:13:43.474Z,36.50
2023-04-03T15:15:04.866Z,37.40
2023-04-03T15:16:25.745Z,37.50
2023-04-03T15:17:46.789Z,38.10
2023-04-03T15:19:08.746Z,38.60
2023-04-03T15:20:30.136Z,37.90
2023-04-03T15:21:50.731Z,36.60
2023-04-03T15:23:12.872Z,36.70
2023-04-03T15:24:33.405Z,35.80
2023-04-03T15:25:54.687Z,35.90
2023-04-03T15:27:15.770Z,35.00
2023-04-03T15:28:38.381Z,35.10
2023-04-03T15:29:59.910Z,35.50
2023-04-03T15:31:20.501Z,36.10
2023-04-03T15:32:41.295Z,36.30
2023-04-03T15:34:02.528Z,36.40
2023-04-03T15:35:25.044Z,36.10
2023-04-03T15:36:45.493Z,36.30
2023-04-03T15:38:06.306Z,35.60
2023-04-03T15:39:27.036Z,35.70
2023-04-03T15:40:47.982Z,35.60
2023-04-03T15:42:08.523Z,35.20
2023-04-03T15:43:29.001Z,35.50
2023-04-03T15:44:49.703Z,35.90
2023-04-03T15:46:10.901Z,36.40
2023-04-03T15:47:31.558Z,35.30
2023-04-03T15:48:52.293Z,35.70
2023-04-03T15:50:13.127Z,37.00
2023-04-03T15:51:35.121Z,36.80
2023-04-03T15:52:55.729Z,37.60
2023-04-03T15:54:16.808Z,36.40
2023-04-03T15:55:40.064Z,37.00
2023-04-03T15:57:00.955Z,36.30
2023-04-03T15:58:21.977Z,35.70
2023-04-03T15:59:43.065Z,36.20
2023-04-03T16:01:07.652Z,35.90
2023-04-03T16:02:28.780Z,36.40
2023-04-03T16:03:49.833Z,36.60
2023-04-03T16:05:11.110Z,35.90
2023-04-03T16:06:31.939Z,35.70
2023-04-03T16:07:54.392Z,34.00
2023-04-03T16:09:15.475Z,33.70
2023-04-03T16:10:37.164Z,34.60
2023-04-03T16:11:58.111Z,33.90
2023-04-03T16:13:18.828Z,35.00
2023-04-03T16:14:39.524Z,35.00
2023-04-03T16:16:01.064Z,35.40
2023-04-03T16:17:21.660Z,34.80
2023-04-03T16:18:42.767Z,34.10
2023-04-03T16:20:04.174Z,34.50
2023-04-03T16:21:25.330Z,34.70
2023-04-03T16:22:46.239Z,35.20
2023-04-03T16:24:08.579Z,34.70
2023-04-03T16:25:29.140Z,34.50
2023-04-03T16:26:49.873Z,34.10
2023-04-03T16:28:11.108Z,34.20
2023-04-03T16:29:31.756Z,35.30
2023-04-03T16:30:52.869Z,34.20
2023-04-03T16:32:14.439Z,34.90
2023-04-03T16:33:35.582Z,34.70
2023-04-03T16:34:56.220Z,34.70
2023-04-03T16:36:16.921Z,33.90
2023-04-03T16:37:37.509Z,33.70
2023-04-03T16:38:58.407Z,33.80
2023-04-03T16:40:20.622Z,35.30
2023-04-03T16:41:41.347Z,34.70
2023-04-03T16:43:02.379Z,35.10
2023-04-03T16:44:23.005Z,35.00
2023-04-03T16:45:43.702Z,34.70
2023-04-03T16:47:04.765Z,35.40
2023-04-03T16:48:25.657Z,35.70
2023-04-03T16:49:46.365Z,35.60
2023-04-03T16:51:07.032Z,35.60
2023-04-03T16:52:28.257Z,36.50
2023-04-03T16:53:49.035Z,35.90
2023-04-03T16:55:09.803Z,37.10
2023-04-03T16:56:31.774Z,37.30
2023-04-03T16:57:52.344Z,36.80
2023-04-03T16:59:13.179Z,37.00
2023-04-03T17:00:34.188Z,37.20
2023-04-03T17:01:55.561Z,37.30
2023-04-03T17:03:17.187Z,36.70
2023-04-03T17:04:37.778Z,36.80
2023-04-03T17:05:58.743Z,37.60
2023-04-03T17:07:19.851Z,37.60
2023-04-03T17:08:40.840Z,37.10
2023-04-03T17:10:01.644Z,37.30
2023-04-03T17:11:22.461Z,37.60
2023-04-03T17:12:45.210Z,37.80
2023-04-03T17:14:06.106Z,37.60
2023-04-03T17:15:26.955Z,37.30
2023-04-03T17:16:48.201Z,37.80
2023-04-03T17:18:09.144Z,37.80
2023-04-03T17:19:30.099Z,38.30
2023-04-03T17:20:55.957Z,37.60
2023-04-03T17:22:16.715Z,37.60
2023-04-03T17:23:44.891Z,37.90
2023-04-03T17:25:10.246Z,39.10
2023-04-03T17:26:31.441Z,39.20
2023-04-03T17:27:59.735Z,39.40
2023-04-03T17:29:32.271Z,39.20
2023-04-03T17:30:54.409Z,39.70
2023-04-03T17:32:36.750Z,40.30
2023-04-03T17:34:00.125Z,40.70
2023-04-03T17:35:28.926Z,40.70
2023-04-03T17:36:54.609Z,41.10
2023-04-03T17:38:15.779Z,40.60
2023-04-03T17:39:36.896Z,41.00
2023-04-03T17:40:57.798Z,40.90
2023-04-03T17:42:18.547Z,41.60
2023-04-03T17:43:40.784Z,42.40
2023-04-03T17:45:01.689Z,42.30
2023-04-03T17:46:23.086Z,42.50
2023-04-03T17:47:43.655Z,42.10
2023-04-03T17:49:04.299Z,42.50
2023-04-03T17:50:25.057Z,43.20
2023-04-03T17:51:45.903Z,42.80
2023-04-03T17:53:06.778Z,42.30
2023-04-03T17:54:27.401Z,42.50
2023-04-03T17:55:48.164Z,42.70
2023-04-03T17:57:08.840Z,43.10
2023-04-03T17:58:29.546Z,44.20
2023-04-03T17:59:51.557Z,44.80
2023-04-03T18:01:14.146Z,45.70